createdAt,value
2023-05-09T03:58:55.899Z,21.19
2023-05-09T03:59:55.720Z,21.15
2023-05-09T04:00:55.721Z,21.16
2023-05-09T04:01:55.834Z,21.15
2023-05-09T04:02:55.747Z,21.16
2023-05-09T04:03:55.732Z,21.23
2023-05-09T04:04:55.867Z,21.22
2023-05-09T04:05:55.698Z,21.16
2023-05-09T04:06:55.672Z,21.18
2023-05-09T04:07:55.704Z,21.33
2023-05-09T04:08:55.697Z,21.23
2023-05-09T04:09:55.652Z,21.25
2023-05-09T04:10:55.679Z,21.25
2023-05-09T04:11:55.661Z,21.34
2023-05-09T04:12:55.679Z,21.25
2023-05-09T04:13:55.654Z,21.31
2023-05-09T04:14:55.777Z,21.28
2023-05-09T04:15:55.637Z,21.33
2023-05-09T04:16:55.696Z,21.34
2023-05-09T04:17:55.694Z,21.38
2023-05-09T04:18:55.626Z,21.36
2023-05-09T04:19:55.643Z,21.48
2023-05-09T04:20:55.616Z,21.48
2023-05-09T04:21:55.604Z,21.45
2023-05-09T04:22:55.592Z,21.45
2023-05-09T04:23:55.613Z,21.58
2023-05-09T04:24:55.592Z,21.49
2023-05-09T04:25:55.617Z,21.56
2023-05-09T04:26:55.581Z,21.56
2023-05-09T04:27:55.577Z,21.59
2023-05-09T04:28:55.586Z,21.61
2023-05-09T04:29:55.584Z,21.61
2023-05-09T04:30:55.779Z,21.67
2023-05-09T04:31:55.871Z,21.68
2023-05-09T04:32:55.636Z,21.71
2023-05-09T04:33:55.582Z,21.71
2023-05-09T04:34:55.570Z,21.77
2023-05-09T04:35:55.596Z,21.80
2023-05-09T04:36:55.555Z,21.78
2023-05-09T04:37:55.545Z,21.82
2023-05-09T04:38:55.546Z,21.80
2023-05-09T04:39:55.551Z,21.82
2023-05-09T04:40:55.537Z,21.85
2023-05-09T04:41:55.564Z,21.83
2023-05-09T04:42:55.538Z,21.89
2023-05-09T04:43:55.537Z,21.93
2023-05-09T04:44:55.548Z,21.96
2023-05-09T04:45:55.552Z,21.96
2023-05-09T04:46:55.653Z,21.93
2023-05-09T04:47:55.547Z,21.93
2023-05-09T04:48:55.534Z,21.97
2023-05-09T04:49:55.525Z,21.97
2023-05-09T04:50:55.515Z,22.11
2023-05-09T04:51:55.512Z,22.14
2023-05-09T04:52:55.529Z,22.14
2023-05-09T04:53:55.506Z,22.09
2023-05-09T04:54:55.520Z,22.08
2023-05-09T04:55:55.507Z,22.05
2023-05-09T04:57:03.182Z,22.18
2023-05-09T04:57:55.483Z,22.08
2023-05-09T04:58:55.482Z,22.12
2023-05-09T04:59:55.497Z,22.16
2023-05-09T05:00:55.482Z,22.23
2023-05-09T05:01:55.496Z,22.27
2023-05-09T05:02:55.620Z,22.24
2023-05-09T05:03:55.497Z,22.23
2023-05-09T05:05:06.247Z,22.22
2023-05-09T05:05:55.474Z,22.30
2023-05-09T05:06:55.458Z,22.30
2023-05-09T05:07:55.454Z,22.23
2023-05-09T05:08:55.453Z,22.34
2023-05-09T05:09:55.448Z,22.31
2023-05-09T05:10:55.469Z,22.31
2023-05-09T05:12:01.822Z,22.42
2023-05-09T05:12:55.473Z,22.49
2023-05-09T05:13:55.446Z,22.42
2023-05-09T05:14:55.425Z,22.39
2023-05-09T05:15:55.457Z,22.46
2023-05-09T05:16:55.442Z,22.45
2023-05-09T05:17:55.449Z,22.48
2023-05-09T05:18:55.556Z,22.52
2023-05-09T05:19:55.416Z,22.57
2023-05-09T05:20:55.429Z,22.60
2023-05-09T05:21:55.412Z,22.64
2023-05-09T05:22:55.425Z,22.64
2023-05-09T05:23:55.450Z,22.63
2023-05-09T05:24:55.447Z,22.63
2023-05-09T05:25:55.418Z,22.60
2023-05-09T05:26:55.411Z,22.69
2023-05-09T05:27:55.409Z,22.71
2023-05-09T05:28:55.391Z,22.70
2023-05-09T05:29:55.393Z,22.73
2023-05-09T05:30:55.426Z,22.70
2023-05-09T05:31:55.468Z,22.70
2023-05-09T05:32:55.460Z,22.82
2023-05-09T05:33:55.418Z,22.76
2023-05-09T05:34:55.516Z,22.84
2023-05-09T05:35:55.376Z,22.78
2023-05-09T05:36:55.380Z,22.78
2023-05-09T05:37:55.378Z,22.82
2023-05-09T05:38:55.384Z,22.86
2023-05-09T05:39:55.359Z,22.89
2023-05-09T05:40:55.365Z,22.85
2023-05-09T05:41:55.367Z,22.92
2023-05-09T05:42:55.360Z,22.94
2023-05-09T05:43:55.370Z,22.92
2023-05-09T05:44:55.361Z,22.91
2023-05-09T05:45:55.395Z,23.03
2023-05-09T05:46:55.381Z,23.00
2023-05-09T05:47:55.460Z,22.96
2023-05-09T05:48:55.354Z,23.06
2023-05-09T05:49:55.459Z,23.06
2023-05-09T05:50:55.573Z,23.15
2023-05-09T05:51:55.824Z,23.03
2023-05-09T05:52:55.410Z,23.09
2023-05-09T05:53:55.485Z,23.18
2023-05-09T05:54:55.437Z,23.21
2023-05-09T05:55:56.065Z,23.25
2023-05-09T05:56:55.368Z,23.21
2023-05-09T05:57:55.315Z,23.25
2023-05-09T05:58:55.322Z,23.29
2023-05-09T05:59:55.407Z,23.41
2023-05-09T06:00:55.697Z,23.41
2023-05-09T06:01:55.616Z,23.41
2023-05-09T06:02:55.485Z,23.45
2023-05-09T06:03:55.405Z,23.42
2023-05-09T06:04:56.168Z,23.50
2023-05-09T06:05:55.569Z,23.60
2023-05-09T06:06:55.423Z,23.57
2023-05-09T06:07:55.325Z,23.62
2023-05-09T06:08:55.345Z,23.70
2023-05-09T06:09:55.311Z,23.75
2023-05-09T06:10:55.317Z,23.77
2023-05-09T06:11:55.290Z,23.81
2023-05-09T06:12:55.332Z,23.81
2023-05-09T06:13:55.338Z,23.90
2023-05-09T06:14:55.380Z,23.92
2023-05-09T06:15:57.699Z,23.94
2023-05-09T06:16:55.349Z,23.94
2023-05-09T06:17:55.330Z,23.99
2023-05-09T06:18:56.283Z,24.11
2023-05-09T06:19:55.302Z,24.12
2023-05-09T06:20:55.303Z,24.03
2023-05-09T06:21:55.289Z,24.18
2023-05-09T06:22:55.498Z,24.11
2023-05-09T06:24:05.919Z,24.22
2023-05-09T06:24:55.323Z,24.21
2023-05-09T06:25:55.275Z,24.22
2023-05-09T06:26:55.265Z,24.30
2023-05-09T06:27:55.361Z,24.30
2023-05-09T06:28:55.304Z,24.30
2023-05-09T06:35:32.622Z,24.46
2023-05-09T06:36:32.663Z,24.54
2023-05-09T06:37:32.615Z,24.52
2023-05-09T06:38:32.619Z,24.46
2023-05-09T06:39:32.574Z,24.48
2023-05-09T06:40:32.622Z,24.49
2023-05-09T06:41:32.579Z,24.54
2023-05-09T06:42:32.575Z,24.54
2023-05-09T06:43:32.620Z,24.55
2023-05-09T06:44:32.648Z,24.58
2023-05-09T06:45:32.669Z,24.54
2023-05-09T06:46:32.657Z,24.61
2023-05-09T06:47:32.631Z,24.64
2023-05-09T06:48:32.596Z,24.64
2023-05-09T06:49:32.568Z,24.61
2023-05-09T06:50:32.986Z,24.63
2023-05-09T06:51:32.566Z,24.64
2023-05-09T06:52:32.619Z,24.61
2023-05-09T06:53:32.582Z,24.75
2023-05-09T06:54:32.687Z,24.64
2023-05-09T06:55:32.678Z,24.66
2023-05-09T06:56:32.609Z,24.70
2023-05-09T06:57:32.552Z,24.77
2023-05-09T06:58:32.586Z,24.75
2023-05-09T06:59:32.566Z,24.77
2023-05-09T07:00:32.565Z,24.75
2023-05-09T07:01:32.692Z,24.75
2023-05-09T07:02:32.588Z,24.70
2023-05-09T07:03:32.551Z,24.77
2023-05-09T07:04:32.600Z,24.70
2023-05-09T07:05:32.632Z,24.70
2023-05-09T07:06:32.558Z,24.70
2023-05-09T07:07:32.572Z,24.71
2023-05-09T07:08:32.586Z,24.69
2023-05-09T07:09:32.603Z,24.80
2023-05-09T07:10:32.660Z,24.74
2023-05-09T07:11:32.549Z,24.77
2023-05-09T07:12:32.557Z,24.85
2023-05-09T07:13:32.555Z,24.75
2023-05-09T07:14:32.626Z,24.80
2023-05-09T07:15:40.358Z,24.80
2023-05-09T07:16:33.671Z,24.86
2023-05-09T07:17:32.625Z,24.92
2023-05-09T07:18:32.538Z,24.96
2023-05-09T07:19:32.559Z,24.93
2023-05-09T07:20:32.557Z,24.89
2023-05-09T07:21:32.554Z,25.00
2023-05-09T07:22:34.769Z,25.04
2023-05-09T07:23:32.548Z,25.05
2023-05-09T07:24:32.584Z,25.01
2023-05-09T07:25:32.573Z,25.02
2023-05-09T07:26:32.655Z,25.01
2023-05-09T07:27:32.543Z,25.00
2023-05-09T07:28:32.565Z,25.01
2023-05-09T07:29:32.596Z,25.04
2023-05-09T07:30:33.279Z,25.08
2023-05-09T07:31:35.293Z,24.97
2023-05-09T07:32:33.595Z,25.08
2023-05-09T07:33:32.570Z,25.15
2023-05-09T07:34:32.630Z,25.12
2023-05-09T07:35:32.851Z,25.17
2023-05-09T07:36:33.617Z,25.24
2023-05-09T07:37:32.572Z,25.26
2023-05-09T07:38:32.631Z,25.29
2023-05-09T07:39:32.580Z,25.33
2023-05-09T07:40:32.567Z,25.34
2023-05-09T07:41:32.573Z,25.39
2023-05-09T07:42:32.719Z,25.45
2023-05-09T07:43:32.510Z,25.44
2023-05-09T07:44:32.570Z,25.48
2023-05-09T07:45:32.737Z,25.56
2023-05-09T07:46:32.529Z,25.60
2023-05-09T07:47:32.554Z,25.69
2023-05-09T07:48:32.533Z,25.66
2023-05-09T07:49:32.657Z,25.56
2023-05-09T07:50:32.575Z,25.59
2023-05-09T07:51:32.581Z,25.63
2023-05-09T07:52:32.630Z,25.75
2023-05-09T07:53:32.522Z,25.67
2023-05-09T07:54:32.577Z,25.69
2023-05-09T07:55:32.572Z,25.67
2023-05-09T07:56:32.503Z,25.74
2023-05-09T07:57:32.579Z,25.81
2023-05-09T07:58:32.654Z,25.79
2023-05-09T07:59:32.522Z,25.84
2023-05-09T08:00:32.518Z,25.81
2023-05-09T08:01:32.593Z,25.88
2023-05-09T08:02:32.694Z,25.89
2023-05-09T08:03:32.583Z,25.93
2023-05-09T08:04:32.534Z,25.97
2023-05-09T08:05:32.579Z,26.00
2023-05-09T08:06:32.527Z,26.07
2023-05-09T08:07:32.538Z,26.16
2023-05-09T08:08:32.509Z,26.09
2023-05-09T08:09:32.525Z,26.17
2023-05-09T08:10:32.545Z,26.31
2023-05-09T08:11:32.534Z,26.26
2023-05-09T08:12:32.536Z,26.24
2023-05-09T08:13:32.551Z,26.35
2023-05-09T08:14:32.679Z,26.35
2023-05-09T08:15:32.565Z,26.34
2023-05-09T08:16:32.693Z,26.38
2023-05-09T08:18:32.589Z,26.53
2023-05-09T08:19:32.572Z,26.49
2023-05-09T08:20:32.527Z,26.59
2023-05-09T08:21:32.538Z,26.59
2023-05-09T08:22:32.654Z,26.59
2023-05-09T08:23:32.513Z,26.57
2023-05-09T08:24:32.548Z,26.60
2023-05-09T08:25:32.535Z,26.76
2023-05-09T08:26:32.534Z,26.81
2023-05-09T08:27:32.551Z,26.78
2023-05-09T08:28:32.531Z,26.76
2023-05-09T08:29:32.742Z,26.84
2023-05-09T08:30:32.639Z,26.89
2023-05-09T08:31:32.619Z,26.90
2023-05-09T08:32:32.624Z,26.99
2023-05-09T08:33:32.550Z,26.94
2023-05-09T08:34:32.601Z,27.04
2023-05-09T08:35:32.638Z,27.08
2023-05-09T08:36:32.617Z,27.09
2023-05-09T08:37:32.546Z,27.04
2023-05-09T08:38:32.582Z,27.12
2023-05-09T08:39:32.554Z,27.19
2023-05-09T08:40:32.626Z,27.18
2023-05-09T08:41:32.588Z,27.19
2023-05-09T08:42:32.974Z,27.18
2023-05-09T08:43:32.674Z,27.13
2023-05-09T08:44:32.617Z,27.27
2023-05-09T08:45:32.579Z,27.31
2023-05-09T08:46:32.797Z,27.28
2023-05-09T08:47:32.595Z,27.34
2023-05-09T08:48:35.249Z,27.28
2023-05-09T08:49:32.545Z,27.33
2023-05-09T08:50:32.530Z,27.30
2023-05-09T08:51:32.545Z,27.36
2023-05-09T08:52:32.560Z,27.30
2023-05-09T08:53:32.555Z,27.34
2023-05-09T08:54:32.536Z,27.27
2023-05-09T08:55:32.536Z,27.28
2023-05-09T08:56:32.574Z,27.34
2023-05-09T08:57:32.561Z,27.28
2023-05-09T08:58:32.687Z,27.31
2023-05-09T08:59:32.626Z,27.24
2023-05-09T09:00:32.582Z,27.24
2023-05-09T09:04:41.663Z,27.19
2023-05-09T09:05:42.390Z,27.31
2023-05-09T09:06:41.349Z,27.28
2023-05-09T10:13:22.818Z,25.76
2023-05-09T10:14:22.549Z,25.75
2023-05-09T10:15:22.521Z,25.75
2023-05-09T10:16:35.533Z,25.78
2023-05-09T10:17:22.780Z,25.76
2023-05-09T10:18:22.726Z,25.78
2023-05-09T10:19:22.528Z,25.78
2023-05-09T10:20:22.521Z,25.70
2023-05-09T10:21:22.671Z,25.81
2023-05-09T10:22:22.550Z,25.76
2023-05-09T10:23:23.569Z,25.76
2023-05-09T10:24:22.541Z,25.78
2023-05-09T10:25:22.518Z,25.76
2023-05-09T10:26:22.529Z,25.89
2023-05-09T10:27:22.619Z,25.84
2023-05-09T10:28:22.629Z,25.86
2023-05-09T10:29:22.700Z,25.84
2023-05-09T10:30:22.785Z,25.89
2023-05-09T10:31:22.767Z,25.91
2023-05-09T10:32:22.537Z,25.89
2023-05-09T10:33:22.579Z,25.89
2023-05-09T10:34:22.545Z,25.89
2023-05-09T10:35:22.568Z,25.99
2023-05-09T10:36:22.556Z,25.96
2023-05-09T10:37:22.523Z,25.89
2023-05-09T10:38:22.576Z,25.97
2023-05-09T10:39:22.483Z,26.01
2023-05-09T10:40:22.711Z,26.06
2023-05-09T10:41:22.635Z,26.11
2023-05-09T10:42:22.525Z,26.15
2023-05-09T10:43:22.489Z,26.24
2023-05-09T10:44:22.569Z,26.23
2023-05-09T10:45:22.689Z,26.32
2023-05-09T10:46:22.504Z,26.31
2023-05-09T10:47:22.572Z,26.30
2023-05-09T10:48:22.498Z,26.34
2023-05-09T10:49:22.564Z,26.32
2023-05-09T10:50:22.567Z,26.34
2023-05-09T10:51:22.494Z,26.39
2023-05-09T10:52:22.488Z,26.42
2023-05-09T10:53:22.497Z,26.35
2023-05-09T10:54:22.510Z,26.39
2023-05-09T10:55:22.481Z,26.45
2023-05-09T10:56:22.659Z,26.44
2023-05-09T10:57:22.525Z,26.31
2023-05-09T10:58:22.590Z,26.32
2023-05-09T11:00:22.519Z,26.31
2023-05-09T11:01:22.718Z,26.35
2023-05-09T11:02:22.564Z,26.41
2023-05-09T11:03:22.535Z,26.38
2023-05-09T11:04:22.495Z,26.44
2023-05-09T11:05:22.536Z,26.44
2023-05-09T11:06:22.489Z,26.35
2023-05-09T11:07:22.686Z,26.44
2023-05-09T11:08:22.501Z,26.44
2023-05-09T11:09:23.713Z,26.44
2023-05-09T11:10:22.553Z,26.47
2023-05-09T11:11:22.645Z,26.49
2023-05-09T11:12:22.557Z,26.57
2023-05-09T11:13:23.347Z,26.54
2023-05-09T11:14:22.515Z,26.50
2023-05-09T11:15:22.501Z,26.54
2023-05-09T11:16:23.879Z,26.56
2023-05-09T11:17:22.894Z,26.60
2023-05-09T11:18:22.552Z,26.64
2023-05-09T11:19:22.540Z,26.69
2023-05-09T11:20:22.516Z,26.72
2023-05-09T11:21:22.478Z,26.76
2023-05-09T11:22:22.503Z,26.72
2023-05-09T11:23:22.495Z,26.76
2023-05-09T11:24:22.501Z,26.81
2023-05-09T11:25:22.536Z,26.79
2023-05-09T11:26:22.503Z,26.76
2023-05-09T11:27:22.576Z,26.96
2023-05-09T11:28:22.557Z,26.90
2023-05-09T11:29:22.512Z,26.94
2023-05-09T11:30:22.506Z,26.89
2023-05-09T11:31:22.551Z,26.96
2023-05-09T11:32:22.716Z,26.90
2023-05-09T11:33:22.656Z,26.97
2023-05-09T11:34:22.568Z,26.90
2023-05-09T11:35:22.599Z,26.94
2023-05-09T11:36:22.549Z,26.82
2023-05-09T11:37:22.513Z,26.94
2023-05-09T11:38:22.546Z,26.90
2023-05-09T11:39:24.261Z,26.86
2023-05-09T11:40:22.605Z,26.91
2023-05-09T11:41:22.507Z,26.87
2023-05-09T11:42:22.519Z,26.86
2023-05-09T11:43:22.500Z,26.86
2023-05-09T11:44:22.513Z,26.78
2023-05-09T11:45:22.538Z,26.81
2023-05-09T11:46:22.610Z,26.82
2023-05-09T11:47:22.554Z,26.81
2023-05-09T11:48:22.489Z,26.84
2023-05-09T11:49:22.602Z,26.78
2023-05-09T11:50:22.573Z,26.78
2023-05-09T11:51:22.583Z,26.81
2023-05-09T11:52:22.521Z,26.81
2023-05-09T11:53:22.505Z,26.78
2023-05-09T11:54:22.509Z,26.82
2023-05-09T11:55:22.692Z,26.91
2023-05-09T11:56:22.553Z,26.84
2023-05-09T11:57:22.559Z,26.84
2023-05-09T11:58:22.528Z,26.84
2023-05-09T11:59:22.914Z,26.96
2023-05-09T12:00:22.537Z,26.97
2023-05-09T12:01:22.521Z,26.94
2023-05-09T12:02:22.872Z,27.01
2023-05-09T12:03:22.779Z,27.08
2023-05-09T12:04:22.689Z,27.01
2023-05-09T12:05:22.688Z,27.06
2023-05-09T12:06:22.516Z,27.09
2023-05-09T12:07:22.561Z,27.16
2023-05-09T12:08:22.494Z,27.21
2023-05-09T12:09:22.653Z,27.15
2023-05-09T12:10:22.605Z,27.18
2023-05-09T12:11:22.497Z,27.11
2023-05-09T12:12:22.509Z,27.15
2023-05-09T12:13:22.596Z,27.16
2023-05-09T12:14:22.525Z,27.11
2023-05-09T12:15:22.552Z,27.11
2023-05-09T12:16:22.546Z,27.19
2023-05-09T12:17:22.642Z,27.04
2023-05-09T12:18:22.734Z,27.04
2023-05-09T12:19:22.532Z,27.05
2023-05-09T12:20:22.513Z,27.01
2023-05-09T12:21:22.677Z,27.01
2023-05-09T12:22:22.573Z,26.99
2023-05-09T12:23:22.539Z,27.04
2023-05-09T12:24:22.518Z,26.94
2023-05-09T12:25:22.520Z,27.00
2023-05-09T12:26:22.499Z,26.99
2023-05-09T12:27:22.525Z,26.94
2023-05-09T12:28:22.519Z,26.97
2023-05-09T12:29:22.505Z,26.93
2023-05-09T12:30:22.507Z,26.87
2023-05-09T12:31:22.595Z,26.78
2023-05-09T12:32:22.501Z,26.71
2023-05-09T12:33:22.555Z,26.84
2023-05-09T12:34:22.550Z,26.71
2023-05-09T12:35:22.522Z,26.69
2023-05-09T12:36:22.569Z,26.69
2023-05-09T12:37:22.687Z,26.69
2023-05-09T12:38:22.606Z,26.72
2023-05-09T12:39:22.528Z,26.63
2023-05-09T12:42:55.080Z,26.47
2023-05-09T12:43:55.065Z,26.50
2023-05-09T12:44:55.069Z,26.52
2023-05-09T12:45:55.120Z,26.47
2023-05-09T12:46:55.117Z,26.41
2023-05-09T12:47:55.108Z,26.41
2023-05-09T12:48:55.119Z,26.35
2023-05-09T12:49:55.144Z,26.34
2023-05-09T12:50:55.173Z,26.24
2023-05-09T12:51:55.068Z,26.26
2023-05-09T12:53:02.661Z,26.19
2023-05-09T12:53:55.086Z,26.19
2023-05-09T12:54:55.128Z,26.07
2023-05-09T12:55:55.126Z,26.09
2023-05-09T12:56:55.083Z,25.99
2023-05-09T12:57:55.118Z,26.01
2023-05-09T12:58:55.134Z,26.01
2023-05-09T12:59:55.069Z,25.96
2023-05-09T13:00:55.088Z,25.89
2023-05-09T13:01:55.122Z,25.94
2023-05-09T13:02:55.251Z,25.79
2023-05-09T13:03:55.071Z,25.91
2023-05-09T13:04:55.181Z,25.91
2023-05-09T13:05:55.081Z,25.82
2023-05-09T13:06:55.149Z,25.82
2023-05-09T13:07:55.100Z,25.82
2023-05-09T13:08:57.421Z,25.76
2023-05-09T13:09:55.168Z,25.82
2023-05-09T13:11:03.882Z,25.78
2023-05-09T13:11:55.058Z,25.76
2023-05-09T13:12:55.090Z,25.74
2023-05-09T13:13:55.104Z,25.75
2023-05-09T13:14:55.120Z,25.76
2023-05-09T13:15:55.063Z,25.81
2023-05-09T13:16:55.080Z,25.70
2023-05-09T13:17:55.169Z,25.78
2023-05-09T13:18:55.099Z,25.85
2023-05-09T13:19:55.078Z,25.81
2023-05-09T13:20:55.110Z,25.81
2023-05-09T13:21:55.072Z,25.86
2023-05-09T13:22:55.047Z,25.86
2023-05-09T13:23:55.082Z,25.91
2023-05-09T13:24:55.200Z,25.99
2023-05-09T13:25:55.092Z,26.00
2023-05-09T13:26:55.123Z,25.94
2023-05-09T13:27:55.055Z,25.93
2023-05-09T13:28:55.237Z,25.96
2023-05-09T13:29:55.045Z,25.94
2023-05-09T13:30:55.169Z,26.03
2023-05-09T13:31:55.065Z,26.03
2023-05-09T13:32:55.066Z,26.03
2023-05-09T13:33:55.161Z,25.99
2023-05-09T13:34:55.055Z,25.96
2023-05-09T13:35:55.132Z,25.97
2023-05-09T13:36:55.120Z,25.94
2023-05-09T13:37:55.035Z,25.96
2023-05-09T13:38:55.108Z,25.96
2023-05-09T13:39:55.076Z,25.94
2023-05-09T13:40:55.169Z,25.94
2023-05-09T13:41:55.084Z,25.89
2023-05-09T13:42:55.114Z,25.91
2023-05-09T13:43:55.124Z,25.93
2023-05-09T13:44:55.969Z,25.86
2023-05-09T13:45:55.214Z,25.85
2023-05-09T13:46:55.143Z,25.94
2023-05-09T13:47:55.112Z,25.85
2023-05-09T13:48:55.067Z,25.89
2023-05-09T13:49:55.065Z,25.81
2023-05-09T13:50:55.902Z,25.85
2023-05-09T13:51:55.046Z,25.89
2023-05-09T13:52:55.062Z,25.85
2023-05-09T13:53:55.052Z,25.82
2023-05-09T13:54:55.022Z,25.86
2023-05-09T13:55:55.037Z,25.85
2023-05-09T13:56:55.159Z,25.84
2023-05-09T13:57:55.133Z,25.88
2023-05-09T13:58:55.020Z,25.93
2023-05-09T13:59:55.026Z,25.79
2023-05-09T14:00:55.032Z,25.91
2023-05-09T14:01:55.067Z,25.84
2023-05-09T14:02:55.075Z,25.84
2023-05-09T14:03:55.108Z,25.89
2023-05-09T14:04:55.013Z,25.88
2023-05-09T14:05:55.029Z,25.88
2023-05-09T14:07:16.021Z,25.89
2023-05-09T14:07:55.032Z,25.88
2023-05-09T14:08:55.014Z,25.86
2023-05-09T14:10:04.851Z,25.86
2023-05-09T14:10:55.040Z,25.84
2023-05-09T14:11:55.479Z,25.93
2023-05-09T14:12:55.154Z,25.81
2023-05-09T14:13:55.029Z,25.86
2023-05-09T14:14:55.049Z,25.86
2023-05-09T14:15:55.061Z,25.85
2023-05-09T14:16:55.023Z,25.88
2023-05-09T14:17:55.042Z,25.88
2023-05-09T14:18:55.004Z,25.93
2023-05-09T14:19:55.029Z,25.82
2023-05-09T14:20:55.017Z,25.79
2023-05-09T14:21:55.020Z,25.79
2023-05-09T14:22:55.026Z,25.76
2023-05-09T14:23:55.000Z,25.81
2023-05-09T14:24:55.002Z,25.75
2023-05-09T14:25:55.026Z,25.75
2023-05-09T14:26:55.024Z,25.75
2023-05-09T14:27:55.013Z,25.67
2023-05-09T14:28:55.123Z,25.71
2023-05-09T14:29:55.016Z,25.66
2023-05-09T14:30:55.034Z,25.66
2023-05-09T14:31:55.126Z,25.56
2023-05-09T14:32:55.008Z,25.60
2023-05-09T14:33:55.022Z,25.64
2023-05-09T14:34:55.091Z,25.63
2023-05-09T14:35:55.031Z,25.60
2023-05-09T14:36:55.007Z,25.63
2023-05-09T14:37:55.011Z,25.59
2023-05-09T14:38:55.060Z,25.48
2023-05-09T14:39:55.033Z,25.51
2023-05-09T14:40:55.010Z,25.41
2023-05-09T14:41:55.012Z,25.41
2023-05-09T14:42:54.997Z,25.42
2023-05-09T14:43:55.004Z,25.37
2023-05-09T14:44:55.157Z,25.37
2023-05-09T14:45:55.031Z,25.37
2023-05-09T14:46:55.072Z,25.29
2023-05-09T14:47:55.014Z,25.30
2023-05-09T14:48:54.995Z,25.33
2023-05-09T14:49:55.018Z,25.22
2023-05-09T14:50:55.003Z,25.23
2023-05-09T14:51:55.006Z,25.15
2023-05-09T14:52:54.975Z,25.24
2023-05-09T14:53:54.979Z,25.15
2023-05-09T14:54:54.988Z,25.17
2023-05-09T14:55:54.978Z,25.14
2023-05-09T14:56:55.020Z,24.97
2023-05-09T14:57:55.011Z,25.04
2023-05-09T14:58:54.982Z,25.09
2023-05-09T14:59:56.150Z,25.00
2023-05-09T15:00:55.117Z,24.96
2023-05-09T15:01:54.992Z,25.05
2023-05-09T15:02:55.025Z,25.02
2023-05-09T15:03:54.973Z,24.97
2023-05-09T15:04:54.967Z,24.90
2023-05-09T15:05:54.974Z,24.96
2023-05-09T15:06:55.003Z,24.94
2023-05-09T15:07:54.964Z,24.83
2023-05-09T15:08:54.961Z,24.82
2023-05-09T15:09:54.966Z,24.78
2023-05-09T15:10:54.957Z,24.83
2023-05-09T15:11:55.045Z,24.82
2023-05-09T15:12:55.055Z,24.78
2023-05-09T15:13:54.966Z,24.80
2023-05-09T15:14:54.971Z,24.77
2023-05-09T15:15:54.946Z,24.80
2023-05-09T15:16:55.106Z,24.74
2023-05-09T15:17:54.955Z,24.74
2023-05-09T15:18:54.942Z,24.69
2023-05-09T15:19:54.939Z,24.64
2023-05-09T15:20:54.938Z,24.70
2023-05-09T15:21:54.958Z,24.71
2023-05-09T15:22:55.025Z,24.75
2023-05-09T15:23:54.938Z,24.78
2023-05-09T15:24:54.960Z,24.66
2023-05-09T15:25:54.945Z,24.71
2023-05-09T15:26:54.985Z,24.66
2023-05-09T15:27:54.942Z,24.69
2023-05-09T15:28:54.957Z,24.63
2023-05-09T15:29:54.933Z,24.59
2023-05-09T15:30:54.950Z,24.66
2023-05-09T15:31:54.923Z,24.66
2023-05-09T15:32:55.087Z,24.63
2023-05-09T15:33:54.944Z,24.67
2023-05-09T15:34:54.960Z,24.66
2023-05-09T15:35:54.918Z,24.63
2023-05-09T15:36:54.915Z,24.63
2023-05-09T15:37:54.942Z,24.77
2023-05-09T15:38:54.910Z,24.66
2023-05-09T15:39:54.931Z,24.69
2023-05-09T15:40:54.927Z,24.63
2023-05-09T15:41:54.912Z,24.70
2023-05-09T15:42:54.914Z,24.69
2023-05-09T15:43:54.912Z,24.75
2023-05-09T15:44:54.914Z,24.66
2023-05-09T15:45:54.935Z,24.74
2023-05-09T15:46:54.904Z,24.61
2023-05-09T15:47:54.937Z,24.64
2023-05-09T15:48:56.192Z,24.64
2023-05-09T15:49:54.902Z,24.77
2023-05-09T15:50:54.889Z,24.67
2023-05-09T15:51:54.913Z,24.64
2023-05-09T15:52:54.915Z,24.69
2023-05-09T15:53:54.890Z,24.75
2023-05-09T15:54:54.911Z,24.66
2023-05-09T15:55:54.921Z,24.59
2023-05-09T15:56:54.889Z,24.66
2023-05-09T15:57:54.895Z,24.66
2023-05-09T15:58:54.916Z,24.55
2023-05-09T15:59:54.902Z,24.61
2023-05-09T16:00:54.899Z,24.59
2023-05-09T16:12:35.780Z,24.44
2023-05-09T16:13:36.055Z,24.54
2023-05-09T16:14:35.714Z,24.51
2023-05-09T16:15:35.644Z,24.46
2023-05-09T16:16:35.731Z,24.45
2023-05-09T16:17:35.612Z,24.46
2023-05-09T16:18:35.619Z,24.48
2023-05-09T16:19:36.040Z,24.34
2023-05-09T16:20:35.602Z,24.48
2023-05-09T16:21:35.637Z,24.44
2023-05-09T16:22:35.606Z,24.42
2023-05-09T16:23:35.614Z,24.46
2023-05-09T16:24:35.603Z,24.37
2023-05-09T16:25:35.676Z,24.36
2023-05-09T16:26:35.638Z,24.33
2023-05-09T16:27:35.613Z,24.32
2023-05-09T16:28:35.693Z,24.29
2023-05-09T16:29:35.597Z,24.37
2023-05-09T16:30:35.594Z,24.33
2023-05-09T16:31:35.929Z,24.34
2023-05-09T16:32:35.589Z,24.30
2023-05-09T16:33:35.586Z,24.27
2023-05-09T16:34:35.575Z,24.27
2023-05-09T16:35:35.585Z,24.33
2023-05-09T16:36:35.603Z,24.24
2023-05-09T16:37:35.853Z,24.30
2023-05-09T16:38:35.619Z,24.29
2023-05-09T16:39:35.577Z,24.27
2023-05-09T16:40:35.565Z,24.29
2023-05-09T16:41:35.624Z,24.26
2023-05-09T16:42:35.605Z,24.24
2023-05-09T16:43:35.560Z,24.29
2023-05-09T16:44:35.673Z,24.22
2023-05-09T16:45:35.592Z,24.30
2023-05-09T16:46:35.548Z,24.21
2023-05-09T16:47:35.564Z,24.24
2023-05-09T16:48:35.556Z,24.21
2023-05-09T16:49:35.538Z,24.26
2023-05-09T16:50:35.544Z,24.26
2023-05-09T16:51:35.544Z,24.18
2023-05-09T16:52:35.544Z,24.21
2023-05-09T16:53:35.540Z,24.24
2023-05-09T16:54:35.539Z,24.15
2023-05-09T16:55:35.846Z,24.19
2023-05-09T16:56:35.540Z,24.18
2023-05-09T16:57:35.533Z,24.21
2023-05-09T16:58:36.786Z,24.18
2023-05-09T16:59:35.546Z,24.14
2023-05-09T17:00:35.647Z,24.18
2023-05-09T17:01:35.662Z,24.14
2023-05-09T17:02:35.606Z,24.15
2023-05-09T17:03:35.509Z,24.18
2023-05-09T17:04:37.776Z,24.18
2023-05-09T17:05:35.514Z,24.18
2023-05-09T17:06:35.505Z,24.11
2023-05-09T17:07:35.524Z,24.07
2023-05-09T17:08:35.510Z,24.08
2023-05-09T17:09:35.498Z,24.04
2023-05-09T17:10:37.446Z,24.00
2023-05-09T17:11:35.507Z,24.02
2023-05-09T17:12:35.506Z,23.96
2023-05-09T17:13:35.519Z,24.02
2023-05-09T17:14:35.497Z,23.93
2023-05-09T17:15:35.509Z,23.93
2023-05-09T17:16:37.958Z,23.99
2023-05-09T17:17:35.509Z,24.00
2023-05-09T17:18:38.027Z,23.97
2023-05-09T17:19:35.488Z,23.97
2023-05-09T17:20:35.488Z,23.96
2023-05-09T17:21:35.477Z,23.92
2023-05-09T17:22:37.143Z,23.87
2023-05-09T17:23:35.480Z,23.90
2023-05-09T17:24:35.487Z,23.97
2023-05-09T17:25:35.488Z,23.92
2023-05-09T17:26:35.475Z,23.92
2023-05-09T17:27:35.467Z,23.85
2023-05-09T17:28:35.493Z,23.92
2023-05-09T17:29:35.477Z,23.89
2023-05-09T17:30:35.459Z,23.90
2023-05-09T17:31:35.535Z,23.82
2023-05-09T17:32:35.584Z,23.79
2023-05-09T17:33:35.470Z,23.82
2023-05-09T17:34:35.451Z,23.77
2023-05-09T17:35:35.463Z,23.78
2023-05-09T17:36:35.515Z,23.75
2023-05-09T17:37:35.468Z,23.77
2023-05-09T17:38:35.445Z,23.78
2023-05-09T17:39:35.445Z,23.72
2023-05-09T17:40:35.438Z,23.71
2023-05-09T17:41:35.440Z,23.72
2023-05-09T17:42:35.467Z,23.71
2023-05-09T17:43:35.460Z,23.64
2023-05-09T17:44:35.429Z,23.71
2023-05-09T17:45:35.430Z,23.66
2023-05-09T17:46:35.504Z,23.64
2023-05-09T17:47:35.461Z,23.72
2023-05-09T17:48:35.545Z,23.63
2023-05-09T17:49:35.429Z,23.63
2023-05-09T17:50:35.404Z,23.62
2023-05-09T17:51:35.420Z,23.64
2023-05-09T17:52:35.415Z,23.62
2023-05-09T17:53:35.415Z,23.60
2023-05-09T17:54:35.425Z,23.57
2023-05-09T17:55:35.428Z,23.64
2023-05-09T17:56:35.397Z,23.57
2023-05-09T17:57:35.390Z,23.52
2023-05-09T17:58:35.408Z,23.59
2023-05-09T17:59:35.414Z,23.44
2023-05-09T18:00:35.420Z,23.47
2023-05-09T18:01:35.488Z,23.48
2023-05-09T18:02:35.440Z,23.45
2023-05-09T18:03:35.506Z,23.45
2023-05-09T18:04:35.515Z,23.40
2023-05-09T18:05:35.392Z,23.35
2023-05-09T18:06:35.374Z,23.44
2023-05-09T18:07:35.367Z,23.44
2023-05-09T18:08:35.381Z,23.40
2023-05-09T18:09:35.370Z,23.40
2023-05-09T18:10:35.379Z,23.40
2023-05-09T18:11:35.387Z,23.42
2023-05-09T18:12:37.000Z,23.42
2023-05-09T18:13:35.363Z,23.37
2023-05-09T18:14:35.364Z,23.35
2023-05-09T18:15:35.355Z,23.41
2023-05-09T18:16:35.512Z,23.26
2023-05-09T18:17:35.383Z,23.28
2023-05-09T18:18:35.355Z,23.19
2023-05-09T18:19:35.345Z,23.21
2023-05-09T18:20:35.451Z,23.29